createdAt,value
2022-11-05T00:00:16.899Z,60.58
2022-11-05T00:03:02.325Z,60.57
2022-11-05T00:05:48.030Z,60.41
2022-11-05T00:08:35.167Z,60.58
2022-11-05T00:11:03.317Z,60.41
2022-11-05T00:13:48.756Z,60.24
2022-11-05T00:16:36.576Z,60.15
2022-11-05T00:19:10.327Z,60.14
2022-11-05T00:21:57.213Z,60.05
2022-11-05T00:24:44.547Z,60.37
2022-11-05T00:27:12.793Z,60.44
2022-11-05T00:29:40.952Z,60.41
2022-11-05T00:32:09.037Z,60.30
2022-11-05T00:34:37.139Z,60.13
2022-11-05T00:37:05.161Z,60.11
2022-11-05T00:39:34.521Z,59.90
2022-11-05T00:42:20.032Z,59.67
2022-11-05T00:45:03.110Z,59.68
2022-11-05T00:47:50.222Z,59.83
2022-11-05T00:50:19.325Z,59.54
2022-11-05T00:52:57.182Z,59.26
2022-11-05T00:55:35.209Z,59.11
2022-11-05T00:58:05.007Z,59.16
2022-11-05T01:00:34.586Z,59.29
2022-11-05T01:03:04.777Z,59.93
2022-11-05T01:05:34.458Z,60.14
2022-11-05T01:08:03.145Z,60.02
2022-11-05T01:10:32.700Z,60.21
2022-11-05T01:13:00.782Z,60.11
2022-11-05T01:15:28.962Z,60.18
2022-11-05T01:17:57.008Z,60.12
2022-11-05T01:20:25.379Z,60.38
2022-11-05T01:22:53.439Z,60.25
2022-11-05T01:25:21.577Z,60.25
2022-11-05T01:27:51.098Z,60.05
2022-11-05T01:30:19.667Z,60.32
2022-11-05T01:32:47.766Z,60.25
2022-11-05T01:35:17.493Z,60.24
2022-11-05T01:37:45.882Z,60.13
2022-11-05T01:40:15.519Z,60.15
2022-11-05T01:42:43.899Z,60.02
2022-11-05T01:45:17.276Z,59.86
2022-11-05T01:48:04.890Z,59.70
2022-11-05T01:50:38.415Z,59.75
2022-11-05T01:53:13.680Z,59.87
2022-11-05T01:55:47.102Z,59.83
2022-11-05T01:58:19.515Z,59.77
2022-11-05T02:00:49.441Z,59.96
2022-11-05T02:03:18.809Z,59.92
2022-11-05T02:05:49.254Z,60.09
2022-11-05T02:08:22.501Z,60.22
2022-11-05T02:10:51.570Z,60.22
2022-11-05T02:13:19.644Z,60.23
2022-11-05T02:15:57.000Z,59.99
2022-11-05T02:18:37.419Z,59.89
2022-11-05T02:21:34.673Z,61.01
2022-11-05T02:24:27.524Z,60.48
2022-11-05T02:27:08.975Z,60.37
2022-11-05T02:30:06.413Z,60.51
2022-11-05T02:32:49.820Z,60.50
2022-11-05T02:35:32.630Z,60.28
2022-11-05T02:38:07.641Z,60.24
2022-11-05T02:40:45.593Z,60.31
2022-11-05T02:43:20.639Z,60.57
2022-11-05T02:46:01.117Z,60.35
2022-11-05T02:48:42.690Z,60.34
2022-11-05T02:51:16.836Z,60.54
2022-11-05T02:53:51.031Z,60.54
2022-11-05T02:56:23.709Z,60.52
2022-11-05T02:58:51.835Z,60.45
2022-11-05T03:01:20.073Z,60.53
2022-11-05T03:03:52.552Z,60.52
2022-11-05T03:07:02.231Z,60.31
2022-11-05T03:09:57.115Z,60.27
2022-11-05T03:12:44.252Z,59.93
2022-11-05T03:15:22.285Z,60.25
2022-11-05T03:18:00.179Z,60.37
2022-11-05T03:20:37.129Z,60.57
2022-11-05T03:23:13.645Z,60.47
2022-11-05T03:25:47.833Z,60.71
2022-11-05T03:28:17.966Z,60.84
2022-11-05T03:30:47.005Z,61.41
2022-11-05T03:33:20.341Z,61.15
2022-11-05T03:35:53.413Z,61.31
2022-11-05T03:38:25.622Z,61.18
2022-11-05T03:40:56.628Z,60.93
2022-11-05T03:43:29.830Z,61.14
2022-11-05T03:46:02.093Z,61.22
2022-11-05T03:48:32.687Z,61.31
2022-11-05T03:51:07.867Z,61.33
2022-11-05T03:53:42.350Z,61.60
2022-11-05T03:56:15.212Z,61.89
2022-11-05T03:58:44.793Z,61.99
2022-11-05T04:01:13.463Z,61.93
2022-11-05T04:03:41.504Z,62.13
2022-11-05T04:06:29.453Z,61.88
2022-11-05T04:09:15.149Z,61.81
2022-11-05T04:12:00.639Z,61.79
2022-11-05T04:14:28.712Z,61.89
2022-11-05T04:17:09.158Z,61.89
2022-11-05T04:19:56.042Z,62.31
2022-11-05T04:22:45.034Z,62.41
2022-11-05T04:25:14.177Z,62.46
2022-11-05T04:27:42.474Z,62.76
2022-11-05T04:30:19.218Z,62.36
2022-11-05T04:33:01.798Z,62.42
2022-11-05T04:35:31.911Z,62.78
2022-11-05T04:38:01.606Z,62.53
2022-11-05T04:40:29.902Z,62.29
2022-11-05T04:42:58.547Z,62.05
2022-11-05T04:45:28.124Z,62.12
2022-11-05T04:47:56.212Z,61.81
2022-11-05T04:50:25.159Z,62.12
2022-11-05T04:52:53.197Z,62.27
2022-11-05T04:55:22.769Z,62.10
2022-11-05T04:57:52.322Z,62.18
2022-11-05T05:00:22.004Z,61.79
2022-11-05T05:02:50.209Z,61.84
2022-11-05T05:05:18.346Z,61.81
2022-11-05T05:07:46.428Z,61.89
2022-11-05T05:10:14.519Z,61.89
2022-11-05T05:12:43.899Z,61.74
2022-11-05T05:15:11.921Z,61.76
2022-11-05T05:17:39.976Z,61.98
2022-11-05T05:20:25.887Z,62.06
2022-11-05T05:22:54.350Z,61.93
2022-11-05T05:25:23.036Z,61.97
2022-11-05T05:27:52.445Z,61.50
2022-11-05T05:30:20.487Z,62.30
2022-11-05T05:32:48.442Z,62.12
2022-11-05T05:35:17.001Z,62.15
2022-11-05T05:37:45.538Z,61.98
2022-11-05T05:40:13.603Z,62.40
2022-11-05T05:42:43.430Z,62.10
2022-11-05T05:45:13.772Z,62.29
2022-11-05T05:47:41.800Z,62.46
2022-11-05T05:50:09.820Z,61.98
2022-11-05T05:52:37.851Z,62.06
2022-11-05T05:55:06.540Z,61.34
2022-11-05T05:57:35.548Z,61.79
2022-11-05T06:00:03.854Z,61.59
2022-11-05T06:02:41.521Z,61.74
2022-11-05T06:05:11.101Z,61.90
2022-11-05T06:07:39.099Z,61.76
2022-11-05T06:10:07.991Z,61.64
2022-11-05T06:12:36.056Z,61.55
2022-11-05T06:15:04.393Z,61.41
2022-11-05T06:17:33.936Z,61.45
2022-11-05T06:20:03.493Z,61.22
2022-11-05T06:22:31.475Z,61.30
2022-11-05T06:24:59.573Z,61.41
2022-11-05T06:27:27.568Z,61.39
2022-11-05T06:29:55.640Z,61.60
2022-11-05T06:32:23.624Z,61.96
2022-11-05T06:34:51.636Z,62.21
2022-11-05T06:37:21.016Z,62.69
2022-11-05T06:39:49.041Z,62.44
2022-11-05T06:42:18.650Z,62.02
2022-11-05T06:44:47.239Z,61.88
2022-11-05T06:47:15.244Z,61.57
2022-11-05T06:49:43.278Z,61.71
2022-11-05T06:52:11.263Z,61.60
2022-11-05T06:54:40.863Z,61.32
2022-11-05T06:57:10.004Z,61.32
2022-11-05T06:59:38.431Z,61.18
2022-11-05T07:02:06.537Z,61.15
2022-11-05T07:04:34.768Z,61.03
2022-11-05T07:07:02.919Z,61.09
2022-11-05T07:09:30.973Z,61.27
2022-11-05T07:12:00.439Z,61.13
2022-11-05T07:14:28.393Z,61.10
2022-11-05T07:16:58.095Z,61.06
2022-11-05T07:19:26.071Z,61.16
2022-11-05T07:21:54.071Z,61.13
2022-11-05T07:24:22.089Z,61.00
2022-11-05T07:26:50.045Z,60.86
2022-11-05T07:29:19.484Z,60.63
2022-11-05T07:31:48.057Z,60.47
2022-11-05T07:34:16.059Z,60.56
2022-11-05T07:36:44.084Z,60.52
2022-11-05T07:39:12.069Z,60.41
2022-11-05T07:41:40.078Z,60.48
2022-11-05T07:44:08.307Z,60.47
2022-11-05T07:46:37.719Z,60.32
2022-11-05T07:49:05.865Z,60.45
2022-11-05T07:51:34.387Z,60.39
2022-11-05T07:54:02.572Z,60.43
2022-11-05T07:56:30.639Z,60.56
2022-11-05T07:58:58.652Z,61.02
2022-11-05T08:01:26.923Z,61.74
2022-11-05T08:03:56.474Z,61.89
2022-11-05T08:06:24.479Z,63.03
2022-11-05T08:08:52.469Z,62.77
2022-11-05T08:11:20.443Z,62.33
2022-11-05T08:13:48.463Z,60.77
2022-11-05T08:16:16.613Z,58.42
2022-11-05T08:18:44.729Z,57.45
2022-11-05T08:21:14.070Z,55.23
2022-11-05T08:23:43.044Z,53.16
2022-11-05T08:26:11.225Z,52.15
2022-11-05T08:28:39.347Z,51.95
2022-11-05T08:31:07.351Z,52.25
2022-11-05T08:33:35.412Z,50.39
2022-11-05T08:36:05.037Z,50.24
2022-11-05T08:38:34.472Z,50.77
2022-11-05T08:41:02.574Z,49.82
2022-11-05T08:43:30.641Z,48.73
2022-11-05T08:46:01.181Z,47.67
2022-11-05T08:48:29.236Z,47.94
2022-11-05T08:50:57.282Z,47.15
2022-11-05T08:53:25.261Z,46.91
2022-11-05T08:55:59.129Z,45.70
2022-11-05T08:58:27.130Z,46.83
2022-11-05T09:00:59.017Z,47.06
2022-11-05T09:03:29.970Z,46.10
2022-11-05T09:05:57.951Z,46.35
2022-11-05T09:08:26.003Z,46.25
2022-11-05T09:10:55.418Z,45.86
2022-11-05T09:13:23.785Z,45.49
2022-11-05T09:15:52.482Z,45.19
2022-11-05T09:18:21.661Z,44.54
2022-11-05T09:20:49.673Z,44.93
2022-11-05T09:23:18.251Z,43.26
2022-11-05T09:25:46.700Z,43.39
2022-11-05T09:28:18.270Z,42.69
2022-11-05T09:30:47.535Z,42.65
2022-11-05T09:33:16.095Z,42.10
2022-11-05T09:35:44.339Z,41.25
2022-11-05T09:38:12.405Z,40.91
2022-11-05T09:40:44.544Z,41.00
2022-11-05T09:43:21.524Z,38.97
2022-11-05T09:45:52.584Z,40.58
2022-11-05T09:48:24.949Z,39.65
2022-11-05T09:50:54.207Z,39.91
2022-11-05T09:53:24.438Z,40.44
2022-11-05T09:55:55.511Z,39.07
2022-11-05T09:58:37.936Z,39.31
2022-11-05T10:01:12.022Z,38.71
2022-11-05T10:03:46.070Z,39.23
2022-11-05T10:06:20.695Z,39.37
2022-11-05T10:08:53.782Z,37.60
2022-11-05T10:11:25.957Z,38.43
2022-11-05T10:13:59.704Z,38.62
2022-11-05T10:16:31.859Z,38.98
2022-11-05T10:19:06.217Z,38.94
2022-11-05T10:22:04.182Z,38.92
2022-11-05T10:24:22.731Z,38.78
2022-11-05T10:26:53.675Z,38.38
2022-11-05T10:29:29.340Z,38.71
2022-11-05T10:31:59.013Z,37.60
2022-11-05T10:34:31.498Z,35.98
2022-11-05T10:36:59.616Z,36.11
2022-11-05T10:39:28.672Z,35.98
2022-11-05T10:42:08.175Z,36.01
2022-11-05T10:44:42.560Z,36.78
2022-11-05T10:47:29.796Z,35.89
2022-11-05T10:49:59.920Z,35.74
2022-11-05T10:52:32.894Z,36.13
2022-11-05T10:55:02.958Z,36.02
2022-11-05T10:57:35.893Z,36.45
2022-11-05T11:00:28.438Z,35.73
2022-11-05T11:02:59.528Z,36.24
2022-11-05T11:05:30.992Z,35.57
2022-11-05T11:08:03.156Z,35.79
2022-11-05T11:10:34.557Z,34.92
2022-11-05T11:13:03.355Z,35.13
2022-11-05T11:15:35.062Z,35.69
2022-11-05T11:18:27.375Z,34.33
2022-11-05T11:21:05.703Z,35.69
2022-11-05T11:23:38.466Z,35.58
2022-11-05T11:26:07.485Z,35.73
2022-11-05T11:28:39.103Z,35.21
2022-11-05T11:31:12.467Z,34.76
2022-11-05T11:33:42.854Z,34.34
2022-11-05T11:36:13.012Z,34.46
2022-11-05T11:38:41.801Z,34.21
2022-11-05T11:41:27.387Z,33.67
2022-11-05T11:43:58.121Z,33.96
2022-11-05T11:46:32.068Z,33.73
2022-11-05T11:49:01.061Z,33.79
2022-11-05T11:51:36.843Z,34.18
2022-11-05T11:54:06.409Z,34.14
2022-11-05T11:56:44.585Z,33.58
2022-11-05T11:59:40.567Z,33.87
2022-11-05T12:02:37.890Z,34.53
2022-11-05T12:05:27.247Z,33.83
2022-11-05T12:07:58.117Z,35.08
2022-11-05T12:10:45.597Z,37.14
2022-11-05T12:13:32.581Z,38.82
2022-11-05T12:16:08.643Z,39.36
2022-11-05T12:18:45.792Z,40.16
2022-11-05T12:21:47.667Z,40.63
2022-11-05T12:24:26.772Z,41.24
2022-11-05T12:27:03.804Z,41.54
2022-11-05T12:29:47.893Z,40.62
2022-11-05T12:32:42.069Z,40.98
2022-11-05T12:35:27.551Z,41.20
2022-11-05T12:38:04.987Z,41.30
2022-11-05T12:40:56.131Z,42.57
2022-11-05T12:43:34.528Z,43.51
2022-11-05T12:46:11.218Z,44.12
2022-11-05T12:48:56.536Z,44.03
2022-11-05T12:51:42.569Z,44.61
2022-11-05T12:54:22.079Z,44.42
2022-11-05T12:56:54.218Z,44.63
2022-11-05T12:59:29.519Z,44.79
2022-11-05T13:02:02.891Z,45.15
2022-11-05T13:04:38.735Z,44.90
2022-11-05T13:07:12.855Z,44.89
2022-11-05T13:09:44.787Z,44.90
2022-11-05T13:12:15.641Z,45.34
2022-11-05T13:14:46.806Z,45.67
2022-11-05T13:17:21.275Z,46.19
2022-11-05T13:19:53.619Z,47.21
2022-11-05T13:22:31.299Z,47.68
2022-11-05T13:25:03.659Z,48.12
2022-11-05T13:27:48.212Z,47.74
2022-11-05T13:30:20.705Z,47.99
2022-11-05T13:32:55.005Z,47.98
2022-11-05T13:35:28.872Z,48.45
2022-11-05T13:38:23.237Z,48.45
2022-11-05T13:41:02.227Z,48.80
2022-11-05T13:43:51.567Z,48.90
2022-11-05T13:46:43.348Z,48.07
2022-11-05T13:49:40.646Z,48.28
2022-11-05T13:52:28.207Z,48.22
2022-11-05T13:55:31.615Z,48.86
2022-11-05T13:58:18.633Z,48.69
2022-11-05T14:00:59.024Z,49.15
2022-11-05T14:03:27.385Z,49.20
2022-11-05T14:06:03.080Z,49.47
2022-11-05T14:08:35.168Z,49.37
2022-11-05T14:11:07.920Z,49.61
2022-11-05T14:13:39.051Z,50.24
2022-11-05T14:16:10.084Z,50.59
2022-11-05T14:18:42.185Z,50.63
2022-11-05T14:21:45.503Z,50.79
2022-11-05T14:24:47.294Z,51.26
2022-11-05T14:27:50.424Z,51.40
2022-11-05T14:30:44.829Z,51.58
2022-11-05T14:33:30.365Z,51.40
2022-11-05T14:36:33.136Z,51.10
2022-11-05T14:39:14.759Z,51.17
2022-11-05T14:42:02.911Z,51.26
2022-11-05T14:44:35.120Z,51.21
2022-11-05T14:47:05.851Z,51.66
2022-11-05T14:49:37.927Z,51.75
2022-11-05T14:52:11.881Z,51.59
2022-11-05T14:54:45.350Z,51.88
2022-11-05T14:57:15.495Z,51.88
2022-11-05T14:59:56.771Z,51.56
2022-11-05T15:02:28.218Z,51.60
2022-11-05T15:05:29.368Z,51.88
2022-11-05T15:07:58.636Z,51.94
2022-11-05T15:10:31.083Z,51.98
2022-11-05T15:13:04.535Z,51.97
2022-11-05T15:15:44.835Z,51.82
2022-11-05T15:18:20.136Z,51.95
2022-11-05T15:20:51.070Z,52.34
2022-11-05T15:23:22.734Z,52.02
2022-11-05T15:26:07.158Z,52.07
2022-11-05T15:28:38.896Z,52.07
2022-11-05T15:31:26.580Z,52.18
2022-11-05T15:34:18.429Z,52.14
2022-11-05T15:36:54.030Z,52.00
2022-11-05T15:39:30.515Z,52.02
2022-11-05T15:41:59.530Z,52.05
2022-11-05T15:44:29.757Z,52.06
2022-11-05T15:47:18.057Z,52.27
2022-11-05T15:49:48.327Z,52.21
2022-11-05T15:52:18.738Z,52.07
2022-11-05T15:54:47.463Z,52.09
2022-11-05T15:57:22.231Z,52.20
2022-11-05T15:59:50.692Z,52.24
2022-11-05T16:02:33.622Z,52.26
2022-11-05T16:05:06.728Z,52.21
2022-11-05T16:07:35.165Z,52.42
2022-11-05T16:10:06.044Z,52.20
2022-11-05T16:12:38.075Z,52.29
2022-11-05T16:15:21.414Z,52.53
2022-11-05T16:17:54.279Z,52.41
2022-11-05T16:20:26.464Z,52.60
2022-11-05T16:22:56.399Z,52.35
2022-11-05T16:25:39.998Z,53.14
2022-11-05T16:28:21.770Z,52.66
2022-11-05T16:30:55.358Z,52.62
2022-11-05T16:33:26.080Z,52.40
2022-11-05T16:35:54.549Z,52.14
2022-11-05T16:38:23.363Z,52.41
2022-11-05T16:40:51.668Z,52.18
2022-11-05T16:43:22.040Z,52.17
2022-11-05T16:45:53.758Z,52.20
2022-11-05T16:48:22.076Z,52.10
2022-11-05T16:50:52.249Z,51.89
2022-11-05T16:53:20.786Z,51.57
2022-11-05T16:55:49.481Z,51.43
2022-11-05T16:58:21.946Z,52.02
2022-11-05T17:00:51.424Z,51.88
2022-11-05T17:03:20.026Z,51.73
2022-11-05T17:05:48.535Z,51.76
2022-11-05T17:08:18.414Z,52.63
2022-11-05T17:10:46.851Z,51.97
2022-11-05T17:13:16.882Z,52.40
2022-11-05T17:15:46.604Z,52.30
2022-11-05T17:18:18.756Z,52.63
2022-11-05T17:20:49.056Z,52.81
2022-11-05T17:23:20.589Z,52.56
2022-11-05T17:25:52.036Z,52.59
2022-11-05T17:28:20.987Z,52.75
2022-11-05T17:30:53.018Z,53.17
2022-11-05T17:33:22.883Z,52.86
2022-11-05T17:35:52.382Z,53.59
2022-11-05T17:38:22.946Z,53.27
2022-11-05T17:40:51.550Z,52.85
2022-11-05T17:43:20.489Z,53.69
2022-11-05T17:45:51.889Z,53.72
2022-11-05T17:48:21.398Z,54.04
2022-11-05T17:50:51.703Z,53.97
2022-11-05T17:53:21.574Z,54.23
2022-11-05T17:55:50.198Z,54.01
2022-11-05T17:58:18.697Z,53.84
2022-11-05T18:00:48.419Z,54.08
2022-11-05T18:03:16.858Z,54.10
2022-11-05T18:05:45.312Z,54.50
2022-11-05T18:08:13.582Z,54.65
2022-11-05T18:10:43.221Z,55.39
2022-11-05T18:13:12.319Z,54.75
2022-11-05T18:15:41.491Z,54.59
2022-11-05T18:18:10.331Z,53.92
2022-11-05T18:20:38.797Z,54.22
2022-11-05T18:23:07.066Z,54.33
2022-11-05T18:25:35.339Z,54.38
2022-11-05T18:28:05.293Z,54.34
2022-11-05T18:30:33.579Z,54.62
2022-11-05T18:33:02.196Z,54.43
2022-11-05T18:35:30.472Z,54.17
2022-11-05T18:37:58.756Z,54.44
2022-11-05T18:40:27.668Z,54.37
2022-11-05T18:42:55.865Z,54.11
2022-11-05T18:45:29.706Z,54.04
2022-11-05T18:47:58.298Z,54.23
2022-11-05T18:50:26.593Z,54.81
2022-11-05T18:52:54.783Z,54.40
2022-11-05T18:55:23.144Z,54.18
2022-11-05T18:57:51.434Z,54.21
2022-11-05T19:00:20.363Z,54.65
2022-11-05T19:02:50.284Z,53.91
2022-11-05T19:05:33.962Z,53.55
2022-11-05T19:08:02.382Z,54.57
2022-11-05T19:10:30.630Z,54.43
2022-11-05T19:12:58.940Z,55.40
2022-11-05T19:15:27.442Z,54.33
2022-11-05T19:17:57.078Z,54.40
2022-11-05T19:20:25.450Z,54.66
2022-11-05T19:22:53.724Z,54.51
2022-11-05T19:25:21.957Z,54.49
2022-11-05T19:27:50.311Z,54.04
2022-11-05T19:30:18.754Z,54.04
2022-11-05T19:32:46.966Z,54.16
2022-11-05T19:35:16.711Z,53.59
2022-11-05T19:37:45.160Z,53.56
2022-11-05T19:40:13.950Z,54.02
2022-11-05T19:42:42.206Z,54.36
2022-11-05T19:45:38.221Z,54.91
2022-11-05T19:47:59.878Z,54.73
2022-11-05T19:50:29.504Z,54.98
2022-11-05T19:52:57.901Z,55.12
2022-11-05T19:55:26.946Z,55.74
2022-11-05T19:57:55.260Z,55.53
2022-11-05T20:00:23.680Z,54.98
2022-11-05T20:02:52.160Z,54.76
2022-11-05T20:05:20.591Z,54.95
2022-11-05T20:07:53.010Z,55.16
2022-11-05T20:10:22.197Z,55.24
2022-11-05T20:12:50.500Z,54.67
2022-11-05T20:15:19.885Z,54.30
2022-11-05T20:17:52.168Z,54.01
2022-11-05T20:20:20.972Z,54.42
2022-11-05T20:22:52.861Z,54.26
2022-11-05T20:25:21.168Z,54.07
2022-11-05T20:27:49.564Z,53.66
2022-11-05T20:30:18.695Z,53.76
2022-11-05T20:32:47.070Z,53.48
2022-11-05T20:35:15.305Z,53.33
2022-11-05T20:37:43.640Z,53.45
2022-11-05T20:40:15.159Z,53.42
2022-11-05T20:42:43.729Z,53.84
2022-11-05T20:45:12.334Z,53.89
2022-11-05T20:47:40.546Z,53.62
2022-11-05T20:50:10.416Z,53.70
2022-11-05T20:52:39.002Z,54.05
2022-11-05T20:55:09.762Z,54.36
2022-11-05T20:57:39.592Z,54.15
2022-11-05T21:00:09.244Z,54.42
2022-11-05T21:02:39.703Z,54.26
2022-11-05T21:05:08.943Z,54.06
2022-11-05T21:07:37.793Z,54.92
2022-11-05T21:10:06.928Z,55.17
2022-11-05T21:12:35.153Z,55.23
2022-11-05T21:15:05.715Z,55.33
2022-11-05T21:17:34.005Z,55.67
2022-11-05T21:20:02.235Z,55.49
2022-11-05T21:22:30.550Z,55.07
2022-11-05T21:24:58.900Z,55.45
2022-11-05T21:27:27.375Z,56.07
2022-11-05T21:29:55.656Z,55.81
2022-11-05T21:32:25.438Z,55.97
2022-11-05T21:34:53.776Z,55.14
2022-11-05T21:37:22.030Z,55.58
2022-11-05T21:39:50.366Z,55.05
2022-11-05T21:42:18.676Z,54.91
2022-11-05T21:44:47.117Z,54.92
2022-11-05T21:47:15.893Z,54.91
2022-11-05T21:49:45.531Z,55.61
2022-11-05T21:52:31.282Z,56.04
2022-11-05T21:55:17.101Z,56.55
2022-11-05T21:58:02.179Z,56.66
2022-11-05T22:00:30.910Z,56.84
2022-11-05T22:03:02.777Z,56.49
2022-11-05T22:05:32.863Z,57.08
2022-11-05T22:08:01.252Z,56.87
2022-11-05T22:10:29.474Z,56.74
2022-11-05T22:12:57.835Z,56.64
2022-11-05T22:15:26.101Z,56.56
2022-11-05T22:17:54.375Z,56.69
2022-11-05T22:20:22.765Z,57.29
2022-11-05T22:22:52.769Z,56.80
2022-11-05T22:25:21.508Z,57.40
2022-11-05T22:27:49.851Z,57.55
2022-11-05T22:30:18.305Z,57.46
2022-11-05T22:32:46.650Z,57.16
2022-11-05T22:35:15.000Z,57.55
2022-11-05T22:37:43.250Z,57.65
2022-11-05T22:40:13.316Z,57.86
2022-11-05T22:42:41.618Z,57.88
2022-11-05T22:45:11.134Z,58.11
2022-11-05T22:47:41.980Z,59.09
2022-11-05T22:50:11.337Z,58.83
2022-11-05T22:52:39.604Z,59.11
2022-11-05T22:55:08.171Z,58.67
2022-11-05T22:57:37.857Z,58.41
2022-11-05T23:00:13.685Z,58.51
2022-11-05T23:02:42.139Z,58.43
2022-11-05T23:05:10.816Z,58.03
2022-11-05T23:07:57.195Z,58.29
2022-11-05T23:10:42.989Z,58.23
2022-11-05T23:13:12.738Z,58.56
2022-11-05T23:16:10.020Z,58.03
2022-11-05T23:18:55.657Z,58.10
2022-11-05T23:21:41.607Z,57.64
2022-11-05T23:24:10.203Z,57.42
2022-11-05T23:26:52.194Z,57.45
2022-11-05T23:29:24.876Z,57.46
2022-11-05T23:32:10.931Z,57.74
2022-11-05T23:34:39.606Z,57.58
2022-11-05T23:37:25.505Z,57.63
2022-11-05T23:39:53.786Z,57.45
2022-11-05T23:42:39.651Z,57.13
2022-11-05T23:45:28.279Z,57.32
2022-11-05T23:48:14.752Z,57.42
2022-11-05T23:50:43.954Z,57.96
2022-11-05T23:53:12.167Z,57.84
2022-11-05T23:55:41.247Z,57.32
2022-11-05T23:58:10.424Z,57.38
